Time;durP1;ratioP1;P1;durP2;ratioP2;P2;SDS_P1;SDS_P2;PMS_P1;PMS_P2;Temp;Humidity;BMP_temperature;BMP_pressure;BME280_temperature;BME280_humidity;BME280_pressure;Samples;Min_cycle;Max_cycle;Signal;HPM_P1;HPM_P2
2020/03/07 00:00:01;;;;;;;2.7;2.5;;;;;;;3.88;79.83496;94392.39;;;;
2020/03/07 00:01:02;;;;;;;2.7;2.5;;;;;;;3.88;79.83496;94392.39;;;;
2020/03/07 00:02:09;;;;;;;2.7;2.5;;;;;;;3.88;79.83496;94392.39;;;;
2020/03/07 00:03:15;;;;;;;2.7;2.5;;;;;;;3.88;79.83496;94392.39;;;;
2020/03/07 00:04:16;;;;;;;2.7;2.5;;;;;;;3.88;79.83496;94392.39;;;;
2020/03/07 00:05:16;;;;;;;2.7;2.5;;;;;;;3.88;79.83496;94392.39;;;;
2020/03/07 00:06:17;;;;;;;2.7;2.5;;;;;;;3.88;79.83496;94392.39;;;;
2020/03/07 00:07:17;;;;;;;2.9;2.6;;;;;;;3.85;80.3418;94394.26;;;;
2020/03/07 00:08:18;;;;;;;2.9;2.6;;;;;;;3.85;80.3418;94394.26;;;;
2020/03/07 00:09:19;;;;;;;2.9;2.6;;;;;;;3.85;80.3418;94394.26;;;;
2020/03/07 00:10:22;;;;;;;2.9;2.6;;;;;;;3.85;80.3418;94394.26;;;;
2020/03/07 00:11:23;;;;;;;2.9;2.6;;;;;;;3.85;80.3418;94394.26;;;;
2020/03/07 00:12:26;;;;;;;2.9;2.6;;;;;;;3.85;80.3418;94394.26;;;;
2020/03/07 00:13:27;;;;;;;2.9;2.6;;;;;;;3.85;80.3418;94394.26;;;;
2020/03/07 00:14:28;;;;;;;2.9;2.6;;;;;;;3.85;80.3418;94394.26;;;;
2020/03/07 00:15:29;;;;;;;2.9;2.6;;;;;;;3.85;80.3418;94394.26;;;;
2020/03/07 00:16:29;;;;;;;2.9;2.6;;;;;;;3.85;80.3418;94394.26;;;;
2020/03/07 00:17:30;;;;;;;3.2;2.9;;;;;;;3.74;80.44824;94412.72;;;;
2020/03/07 00:18:30;;;;;;;3.2;2.9;;;;;;;3.74;80.44824;94412.72;;;;
2020/03/07 00:19:31;;;;;;;3.2;2.9;;;;;;;3.74;80.44824;94412.72;;;;
2020/03/07 00:20:32;;;;;;;3.2;2.9;;;;;;;3.74;80.44824;94412.72;;;;
2020/03/07 00:21:32;;;;;;;3.2;2.9;;;;;;;3.74;80.44824;94412.72;;;;
2020/03/07 00:22:33;;;;;;;3.2;2.9;;;;;;;3.74;80.44824;94412.72;;;;
2020/03/07 00:23:33;;;;;;;3.2;2.9;;;;;;;3.74;80.44824;94412.72;;;;
2020/03/07 00:24:35;;;;;;;3.2;2.9;;;;;;;3.74;80.44824;94412.72;;;;
2020/03/07 00:25:35;;;;;;;3.2;2.9;;;;;;;3.74;80.44824;94412.72;;;;
2020/03/07 00:26:36;;;;;;;3.2;2.9;;;;;;;3.74;80.44824;94412.72;;;;
2020/03/07 00:27:36;;;;;;;3.2;2.9;;;;;;;3.74;80.44824;94412.72;;;;
2020/03/07 00:28:37;;;;;;;3.55;3.25;;;;;;;3.74;80.57422;94430.06;;;;
2020/03/07 00:29:40;;;;;;;3.55;3.25;;;;;;;3.74;80.57422;94430.06;;;;
2020/03/07 00:30:41;;;;;;;3.55;3.25;;;;;;;3.74;80.57422;94430.06;;;;
2020/03/07 00:31:41;;;;;;;3.55;3.25;;;;;;;3.74;80.57422;94430.06;;;;
2020/03/07 00:32:42;;;;;;;3.55;3.25;;;;;;;3.74;80.57422;94430.06;;;;
2020/03/07 00:33:43;;;;;;;3.55;3.25;;;;;;;3.74;80.57422;94430.06;;;;
2020/03/07 00:34:43;;;;;;;3.55;3.25;;;;;;;3.74;80.57422;94430.06;;;;
2020/03/07 00:35:46;;;;;;;3.55;3.25;;;;;;;3.74;80.57422;94430.06;;;;
2020/03/07 00:36:46;;;;;;;3.55;3.25;;;;;;;3.74;80.57422;94430.06;;;;
2020/03/07 00:37:47;;;;;;;3.55;3.25;;;;;;;3.74;80.57422;94430.06;;;;
2020/03/07 00:38:47;;;;;;;3.65;3.35;;;;;;;3.7;80.52539;94443.95;;;;
2020/03/07 00:39:48;;;;;;;3.65;3.35;;;;;;;3.7;80.52539;94443.95;;;;
2020/03/07 00:40:48;;;;;;;3.65;3.35;;;;;;;3.7;80.52539;94443.95;;;;
2020/03/07 00:41:49;;;;;;;3.65;3.35;;;;;;;3.7;80.52539;94443.95;;;;
2020/03/07 00:42:49;;;;;;;3.65;3.35;;;;;;;3.7;80.52539;94443.95;;;;
2020/03/07 00:43:50;;;;;;;3.65;3.35;;;;;;;3.7;80.52539;94443.95;;;;
2020/03/07 00:44:50;;;;;;;3.65;3.35;;;;;;;3.7;80.52539;94443.95;;;;
2020/03/07 00:45:51;;;;;;;3.65;3.35;;;;;;;3.7;80.52539;94443.95;;;;
2020/03/07 00:46:51;;;;;;;3.65;3.35;;;;;;;3.7;80.52539;94443.95;;;;
2020/03/07 00:47:52;;;;;;;3.65;3.35;;;;;;;3.7;80.52539;94443.95;;;;
2020/03/07 00:48:52;;;;;;;4.9;3.8;;;;;;;3.76;81.28223;94453.75;;;;
2020/03/07 00:49:52;;;;;;;4.9;3.8;;;;;;;3.76;81.28223;94453.75;;;;
2020/03/07 00:50:53;;;;;;;4.9;3.8;;;;;;;3.76;81.28223;94453.75;;;;
2020/03/07 00:51:53;;;;;;;4.9;3.8;;;;;;;3.76;81.28223;94453.75;;;;
2020/03/07 00:52:54;;;;;;;4.9;3.8;;;;;;;3.76;81.28223;94453.75;;;;
2020/03/07 00:53:54;;;;;;;4.9;3.8;;;;;;;3.76;81.28223;94453.75;;;;
2020/03/07 00:54:55;;;;;;;4.9;3.8;;;;;;;3.76;81.28223;94453.75;;;;
2020/03/07 00:55:55;;;;;;;4.9;3.8;;;;;;;3.76;81.28223;94453.75;;;;
2020/03/07 00:56:56;;;;;;;4.9;3.8;;;;;;;3.76;81.28223;94453.75;;;;
2020/03/07 00:57:56;;;;;;;4.9;3.8;;;;;;;3.76;81.28223;94453.75;;;;
2020/03/07 00:58:57;;;;;;;4.9;3.8;;;;;;;3.76;81.28223;94453.75;;;;
2020/03/07 00:59:58;;;;;;;4.1;3.7;;;;;;;3.76;81.16699;94454.71;;;;
2020/03/07 01:00:58;;;;;;;4.1;3.7;;;;;;;3.76;81.16699;94454.71;;;;
2020/03/07 01:01:58;;;;;;;4.1;3.7;;;;;;;3.76;81.16699;94454.71;;;;
2020/03/07 01:03:00;;;;;;;4.1;3.7;;;;;;;3.76;81.16699;94454.71;;;;
2020/03/07 01:04:00;;;;;;;4.1;3.7;;;;;;;3.76;81.16699;94454.71;;;;
2020/03/07 01:05:01;;;;;;;4.1;3.7;;;;;;;3.76;81.16699;94454.71;;;;
2020/03/07 01:06:01;;;;;;;4.1;3.7;;;;;;;3.76;81.16699;94454.71;;;;
2020/03/07 01:07:02;;;;;;;4.1;3.7;;;;;;;3.76;81.16699;94454.71;;;;
2020/03/07 01:08:03;;;;;;;4.1;3.7;;;;;;;3.76;81.16699;94454.71;;;;
2020/03/07 01:09:03;;;;;;;4.1;3.7;;;;;;;3.76;81.16699;94454.71;;;;
2020/03/07 01:10:05;;;;;;;3.9;3.6;;;;;;;3.82;81.52637;94456.49;;;;
2020/03/07 01:11:06;;;;;;;3.9;3.6;;;;;;;3.82;81.52637;94456.49;;;;
2020/03/07 01:12:06;;;;;;;3.9;3.6;;;;;;;3.82;81.52637;94456.49;;;;
2020/03/07 01:13:07;;;;;;;3.9;3.6;;;;;;;3.82;81.52637;94456.49;;;;
2020/03/07 01:14:07;;;;;;;3.9;3.6;;;;;;;3.82;81.52637;94456.49;;;;
2020/03/07 01:15:08;;;;;;;3.9;3.6;;;;;;;3.82;81.52637;94456.49;;;;
2020/03/07 01:16:08;;;;;;;3.9;3.6;;;;;;;3.82;81.52637;94456.49;;;;
2020/03/07 01:17:09;;;;;;;3.9;3.6;;;;;;;3.82;81.52637;94456.49;;;;
2020/03/07 01:18:09;;;;;;;3.9;3.6;;;;;;;3.82;81.52637;94456.49;;;;
2020/03/07 01:19:10;;;;;;;3.9;3.6;;;;;;;3.82;81.52637;94456.49;;;;
2020/03/07 01:20:10;;;;;;;3.9;3.6;;;;;;;3.82;81.52637;94456.49;;;;
2020/03/07 01:21:11;;;;;;;4.6;4.15;;;;;;;3.84;81.38184;94471.78;;;;
2020/03/07 01:22:11;;;;;;;4.6;4.15;;;;;;;3.84;81.38184;94471.78;;;;
2020/03/07 01:23:11;;;;;;;4.6;4.15;;;;;;;3.84;81.38184;94471.78;;;;
2020/03/07 01:24:12;;;;;;;4.6;4.15;;;;;;;3.84;81.38184;94471.78;;;;
2020/03/07 01:25:12;;;;;;;4.6;4.15;;;;;;;3.84;81.38184;94471.78;;;;
2020/03/07 01:26:13;;;;;;;4.6;4.15;;;;;;;3.84;81.38184;94471.78;;;;
2020/03/07 01:27:13;;;;;;;4.6;4.15;;;;;;;3.84;81.38184;94471.78;;;;
2020/03/07 01:28:14;;;;;;;4.6;4.15;;;;;;;3.84;81.38184;94471.78;;;;
2020/03/07 01:29:14;;;;;;;4.6;4.15;;;;;;;3.84;81.38184;94471.78;;;;
2020/03/07 01:30:15;;;;;;;4.6;4.15;;;;;;;3.84;81.38184;94471.78;;;;
2020/03/07 01:31:15;;;;;;;4.85;4.35;;;;;;;3.89;81.74805;94474.2;;;;
2020/03/07 01:32:16;;;;;;;4.85;4.35;;;;;;;3.89;81.74805;94474.2;;;;
2020/03/07 01:33:16;;;;;;;4.85;4.35;;;;;;;3.89;81.74805;94474.2;;;;
2020/03/07 01:34:17;;;;;;;4.85;4.35;;;;;;;3.89;81.74805;94474.2;;;;
2020/03/07 01:35:18;;;;;;;4.85;4.35;;;;;;;3.89;81.74805;94474.2;;;;
2020/03/07 01:36:18;;;;;;;4.85;4.35;;;;;;;3.89;81.74805;94474.2;;;;
2020/03/07 01:37:19;;;;;;;4.85;4.35;;;;;;;3.89;81.74805;94474.2;;;;
2020/03/07 01:38:19;;;;;;;4.85;4.35;;;;;;;3.89;81.74805;94474.2;;;;
2020/03/07 01:39:20;;;;;;;4.85;4.35;;;;;;;3.89;81.74805;94474.2;;;;
2020/03/07 01:40:20;;;;;;;4.85;4.35;;;;;;;3.89;81.74805;94474.2;;;;
2020/03/07 01:41:21;;;;;;;4.85;4.35;;;;;;;3.89;81.74805;94474.2;;;;
2020/03/07 01:42:21;;;;;;;6.05;5.1;;;;;;;3.75;82.22754;94486.41;;;;
2020/03/07 01:43:22;;;;;;;6.05;5.1;;;;;;;3.75;82.22754;94486.41;;;;
2020/03/07 01:44:23;;;;;;;6.05;5.1;;;;;;;3.75;82.22754;94486.41;;;;
2020/03/07 01:45:23;;;;;;;6.05;5.1;;;;;;;3.75;82.22754;94486.41;;;;
2020/03/07 01:46:24;;;;;;;6.05;5.1;;;;;;;3.75;82.22754;94486.41;;;;
2020/03/07 01:47:24;;;;;;;6.05;5.1;;;;;;;3.75;82.22754;94486.41;;;;
2020/03/07 01:48:25;;;;;;;6.05;5.1;;;;;;;3.75;82.22754;94486.41;;;;
2020/03/07 01:49:25;;;;;;;6.05;5.1;;;;;;;3.75;82.22754;94486.41;;;;
2020/03/07 01:50:26;;;;;;;6.05;5.1;;;;;;;3.75;82.22754;94486.41;;;;
2020/03/07 01:51:26;;;;;;;6.05;5.1;;;;;;;3.75;82.22754;94486.41;;;;
2020/03/07 01:52:26;;;;;;;7.15;5.849999;;;;;;;3.51;82.9873;94484.5;;;;
2020/03/07 01:53:27;;;;;;;7.15;5.849999;;;;;;;3.51;82.9873;94484.5;;;;
2020/03/07 01:54:27;;;;;;;7.15;5.849999;;;;;;;3.51;82.9873;94484.5;;;;
2020/03/07 01:55:28;;;;;;;7.15;5.849999;;;;;;;3.51;82.9873;94484.5;;;;
2020/03/07 01:56:28;;;;;;;7.15;5.849999;;;;;;;3.51;82.9873;94484.5;;;;
2020/03/07 01:57:29;;;;;;;7.15;5.849999;;;;;;;3.51;82.9873;94484.5;;;;
2020/03/07 01:58:29;;;;;;;7.15;5.849999;;;;;;;3.51;82.9873;94484.5;;;;
2020/03/07 01:59:30;;;;;;;7.15;5.849999;;;;;;;3.51;82.9873;94484.5;;;;
2020/03/07 02:00:30;;;;;;;7.15;5.849999;;;;;;;3.51;82.9873;94484.5;;;;
2020/03/07 02:01:30;;;;;;;7.15;5.849999;;;;;;;3.51;82.9873;94484.5;;;;
2020/03/07 02:02:31;;;;;;;7.15;5.849999;;;;;;;3.51;82.9873;94484.5;;;;
2020/03/07 02:03:31;;;;;;;7.25;5.95;;;;;;;3.34;83.11426;94484.66;;;;
2020/03/07 02:04:32;;;;;;;7.25;5.95;;;;;;;3.34;83.11426;94484.66;;;;
2020/03/07 02:05:32;;;;;;;7.25;5.95;;;;;;;3.34;83.11426;94484.66;;;;
2020/03/07 02:06:33;;;;;;;7.25;5.95;;;;;;;3.34;83.11426;94484.66;;;;
2020/03/07 02:07:33;;;;;;;7.25;5.95;;;;;;;3.34;83.11426;94484.66;;;;
2020/03/07 02:08:33;;;;;;;7.25;5.95;;;;;;;3.34;83.11426;94484.66;;;;
2020/03/07 02:09:34;;;;;;;7.25;5.95;;;;;;;3.34;83.11426;94484.66;;;;
2020/03/07 02:10:34;;;;;;;7.25;5.95;;;;;;;3.34;83.11426;94484.66;;;;
2020/03/07 02:11:35;;;;;;;7.25;5.95;;;;;;;3.34;83.11426;94484.66;;;;
2020/03/07 02:12:35;;;;;;;7.25;5.95;;;;;;;3.34;83.11426;94484.66;;;;
2020/03/07 02:13:36;;;;;;;7.25;5.95;;;;;;;3.34;83.11426;94484.66;;;;
2020/03/07 02:14:36;;;;;;;6.8;5.85;;;;;;;3.3;84.10352;94489.6;;;;
2020/03/07 02:15:36;;;;;;;6.8;5.85;;;;;;;3.3;84.10352;94489.6;;;;
2020/03/07 02:16:37;;;;;;;6.8;5.85;;;;;;;3.3;84.10352;94489.6;;;;
2020/03/07 02:17:37;;;;;;;6.8;5.85;;;;;;;3.3;84.10352;94489.6;;;;
2020/03/07 02:18:38;;;;;;;6.8;5.85;;;;;;;3.3;84.10352;94489.6;;;;
2020/03/07 02:19:39;;;;;;;6.8;5.85;;;;;;;3.3;84.10352;94489.6;;;;
2020/03/07 02:20:39;;;;;;;6.8;5.85;;;;;;;3.3;84.10352;94489.6;;;;
2020/03/07 02:21:40;;;;;;;6.8;5.85;;;;;;;3.3;84.10352;94489.6;;;;
2020/03/07 02:22:40;;;;;;;6.8;5.85;;;;;;;3.3;84.10352;94489.6;;;;
2020/03/07 02:23:41;;;;;;;6.8;5.85;;;;;;;3.3;84.10352;94489.6;;;;
2020/03/07 02:24:41;;;;;;;6.599999;5.85;;;;;;;3.33;84.89355;94493.7;;;;
2020/03/07 02:25:41;;;;;;;6.599999;5.85;;;;;;;3.33;84.89355;94493.7;;;;
2020/03/07 02:26:42;;;;;;;6.599999;5.85;;;;;;;3.33;84.89355;94493.7;;;;
2020/03/07 02:27:43;;;;;;;6.599999;5.85;;;;;;;3.33;84.89355;94493.7;;;;
2020/03/07 02:28:43;;;;;;;6.599999;5.85;;;;;;;3.33;84.89355;94493.7;;;;
2020/03/07 02:29:44;;;;;;;6.599999;5.85;;;;;;;3.33;84.89355;94493.7;;;;
2020/03/07 02:30:44;;;;;;;6.599999;5.85;;;;;;;3.33;84.89355;94493.7;;;;
2020/03/07 02:31:45;;;;;;;6.599999;5.85;;;;;;;3.33;84.89355;94493.7;;;;
2020/03/07 02:32:45;;;;;;;6.599999;5.85;;;;;;;3.33;84.89355;94493.7;;;;
2020/03/07 02:33:46;;;;;;;6.599999;5.85;;;;;;;3.33;84.89355;94493.7;;;;
2020/03/07 02:34:47;;;;;;;6.599999;5.85;;;;;;;3.33;84.89355;94493.7;;;;
2020/03/07 02:35:47;;;;;;;7.85;6.65;;;;;;;3.44;85.3584;94512.94;;;;
2020/03/07 02:36:48;;;;;;;7.85;6.65;;;;;;;3.44;85.3584;94512.94;;;;
2020/03/07 02:37:49;;;;;;;7.85;6.65;;;;;;;3.44;85.3584;94512.94;;;;
2020/03/07 02:38:49;;;;;;;7.85;6.65;;;;;;;3.44;85.3584;94512.94;;;;
2020/03/07 02:39:50;;;;;;;7.85;6.65;;;;;;;3.44;85.3584;94512.94;;;;
2020/03/07 02:40:50;;;;;;;7.85;6.65;;;;;;;3.44;85.3584;94512.94;;;;
2020/03/07 02:41:51;;;;;;;7.85;6.65;;;;;;;3.44;85.3584;94512.94;;;;
2020/03/07 02:42:51;;;;;;;7.85;6.65;;;;;;;3.44;85.3584;94512.94;;;;
2020/03/07 02:43:52;;;;;;;7.85;6.65;;;;;;;3.44;85.3584;94512.94;;;;
2020/03/07 02:44:52;;;;;;;7.85;6.65;;;;;;;3.44;85.3584;94512.94;;;;
2020/03/07 02:45:53;;;;;;;7.749999;6.85;;;;;;;3.47;85.37695;94537.86;;;;
2020/03/07 02:46:53;;;;;;;7.749999;6.85;;;;;;;3.47;85.37695;94537.86;;;;
2020/03/07 02:47:54;;;;;;;7.749999;6.85;;;;;;;3.47;85.37695;94537.86;;;;
2020/03/07 02:48:54;;;;;;;7.749999;6.85;;;;;;;3.47;85.37695;94537.86;;;;
2020/03/07 02:49:55;;;;;;;7.749999;6.85;;;;;;;3.47;85.37695;94537.86;;;;
2020/03/07 02:50:55;;;;;;;7.749999;6.85;;;;;;;3.47;85.37695;94537.86;;;;
2020/03/07 02:51:56;;;;;;;7.749999;6.85;;;;;;;3.47;85.37695;94537.86;;;;
2020/03/07 02:52:56;;;;;;;7.749999;6.85;;;;;;;3.47;85.37695;94537.86;;;;
2020/03/07 02:53:56;;;;;;;7.749999;6.85;;;;;;;3.47;85.37695;94537.86;;;;
2020/03/07 02:54:57;;;;;;;7.749999;6.85;;;;;;;3.47;85.37695;94537.86;;;;
2020/03/07 02:55:57;;;;;;;7.749999;6.85;;;;;;;3.47;85.37695;94537.86;;;;
2020/03/07 02:56:58;;;;;;;9.349999;7.6;;;;;;;3.55;85.73633;94547.07;;;;
2020/03/07 02:57:58;;;;;;;9.349999;7.6;;;;;;;3.55;85.73633;94547.07;;;;
2020/03/07 02:58:59;;;;;;;9.349999;7.6;;;;;;;3.55;85.73633;94547.07;;;;
2020/03/07 03:00:00;;;;;;;9.349999;7.6;;;;;;;3.55;85.73633;94547.07;;;;
2020/03/07 03:01:01;;;;;;;9.349999;7.6;;;;;;;3.55;85.73633;94547.07;;;;
2020/03/07 03:02:01;;;;;;;9.349999;7.6;;;;;;;3.55;85.73633;94547.07;;;;
2020/03/07 03:03:02;;;;;;;9.349999;7.6;;;;;;;3.55;85.73633;94547.07;;;;
2020/03/07 03:04:03;;;;;;;9.349999;7.6;;;;;;;3.55;85.73633;94547.07;;;;
2020/03/07 03:05:03;;;;;;;9.349999;7.6;;;;;;;3.55;85.73633;94547.07;;;;
2020/03/07 03:06:05;;;;;;;9.349999;7.6;;;;;;;3.55;85.73633;94547.07;;;;
2020/03/07 03:07:05;;;;;;;9.450001;7.3;;;;;;;3.55;85.87207;94560.83;;;;
2020/03/07 03:08:06;;;;;;;9.450001;7.3;;;;;;;3.55;85.87207;94560.83;;;;
2020/03/07 03:09:06;;;;;;;9.450001;7.3;;;;;;;3.55;85.87207;94560.83;;;;
2020/03/07 03:10:17;;;;;;;9.450001;7.3;;;;;;;3.55;85.87207;94560.83;;;;
2020/03/07 03:11:17;;;;;;;9.450001;7.3;;;;;;;3.55;85.87207;94560.83;;;;
2020/03/07 03:12:18;;;;;;;9.450001;7.3;;;;;;;3.55;85.87207;94560.83;;;;
2020/03/07 03:13:18;;;;;;;9.450001;7.3;;;;;;;3.55;85.87207;94560.83;;;;
2020/03/07 03:14:19;;;;;;;9.450001;7.3;;;;;;;3.55;85.87207;94560.83;;;;
2020/03/07 03:15:19;;;;;;;9.450001;7.3;;;;;;;3.55;85.87207;94560.83;;;;
2020/03/07 03:16:20;;;;;;;9.450001;7.3;;;;;;;3.55;85.87207;94560.83;;;;
2020/03/07 03:17:20;;;;;;;9.749999;7.900001;;;;;;;3.64;86.04883;94573.83;;;;
2020/03/07 03:18:21;;;;;;;9.749999;7.900001;;;;;;;3.64;86.04883;94573.83;;;;
2020/03/07 03:19:22;;;;;;;9.749999;7.900001;;;;;;;3.64;86.04883;94573.83;;;;
2020/03/07 03:20:22;;;;;;;9.749999;7.900001;;;;;;;3.64;86.04883;94573.83;;;;
2020/03/07 03:21:23;;;;;;;9.749999;7.900001;;;;;;;3.64;86.04883;94573.83;;;;
2020/03/07 03:22:23;;;;;;;9.749999;7.900001;;;;;;;3.64;86.04883;94573.83;;;;
2020/03/07 03:23:24;;;;;;;9.749999;7.900001;;;;;;;3.64;86.04883;94573.83;;;;
2020/03/07 03:24:24;;;;;;;9.749999;7.900001;;;;;;;3.64;86.04883;94573.83;;;;
2020/03/07 03:25:25;;;;;;;9.749999;7.900001;;;;;;;3.64;86.04883;94573.83;;;;
2020/03/07 03:26:25;;;;;;;9.749999;7.900001;;;;;;;3.64;86.04883;94573.83;;;;
2020/03/07 03:27:26;;;;;;;9.749999;7.900001;;;;;;;3.64;86.04883;94573.83;;;;
2020/03/07 03:28:27;;;;;;;10.35;8.099998;;;;;;;3.66;86.0625;94589.12;;;;
2020/03/07 03:29:27;;;;;;;10.35;8.099998;;;;;;;3.66;86.0625;94589.12;;;;
2020/03/07 03:30:28;;;;;;;10.35;8.099998;;;;;;;3.66;86.0625;94589.12;;;;
2020/03/07 03:31:28;;;;;;;10.35;8.099998;;;;;;;3.66;86.0625;94589.12;;;;
2020/03/07 03:32:29;;;;;;;10.35;8.099998;;;;;;;3.66;86.0625;94589.12;;;;
2020/03/07 03:33:29;;;;;;;10.35;8.099998;;;;;;;3.66;86.0625;94589.12;;;;
2020/03/07 03:34:30;;;;;;;10.35;8.099998;;;;;;;3.66;86.0625;94589.12;;;;
2020/03/07 03:35:30;;;;;;;10.35;8.099998;;;;;;;3.66;86.0625;94589.12;;;;
2020/03/07 03:36:31;;;;;;;10.35;8.099998;;;;;;;3.66;86.0625;94589.12;;;;
2020/03/07 03:37:31;;;;;;;10.35;8.099998;;;;;;;3.66;86.0625;94589.12;;;;
2020/03/07 03:38:32;;;;;;;9.950001;8.3;;;;;;;3.74;86.25781;94607.47;;;;
2020/03/07 03:39:32;;;;;;;9.950001;8.3;;;;;;;3.74;86.25781;94607.47;;;;
2020/03/07 03:40:33;;;;;;;9.950001;8.3;;;;;;;3.74;86.25781;94607.47;;;;
2020/03/07 03:41:33;;;;;;;9.950001;8.3;;;;;;;3.74;86.25781;94607.47;;;;
2020/03/07 03:42:33;;;;;;;9.950001;8.3;;;;;;;3.74;86.25781;94607.47;;;;
2020/03/07 03:43:34;;;;;;;9.950001;8.3;;;;;;;3.74;86.25781;94607.47;;;;
2020/03/07 03:44:35;;;;;;;9.950001;8.3;;;;;;;3.74;86.25781;94607.47;;;;
2020/03/07 03:45:35;;;;;;;9.950001;8.3;;;;;;;3.74;86.25781;94607.47;;;;
2020/03/07 03:46:36;;;;;;;9.950001;8.3;;;;;;;3.74;86.25781;94607.47;;;;
2020/03/07 03:47:36;;;;;;;9.950001;8.3;;;;;;;3.74;86.25781;94607.47;;;;
2020/03/07 03:48:37;;;;;;;9.950001;8.3;;;;;;;3.74;86.25781;94607.47;;;;
2020/03/07 03:49:37;;;;;;;10.95;8.700001;;;;;;;3.74;86.0459;94626.28;;;;
2020/03/07 03:50:38;;;;;;;10.95;8.700001;;;;;;;3.74;86.0459;94626.28;;;;
2020/03/07 03:51:49;;;;;;;10.95;8.700001;;;;;;;3.74;86.0459;94626.28;;;;
2020/03/07 03:52:55;;;;;;;10.95;8.700001;;;;;;;3.74;86.0459;94626.28;;;;
2020/03/07 03:53:56;;;;;;;10.95;8.700001;;;;;;;3.74;86.0459;94626.28;;;;
2020/03/07 03:54:56;;;;;;;10.95;8.700001;;;;;;;3.74;86.0459;94626.28;;;;
2020/03/07 03:55:57;;;;;;;10.95;8.700001;;;;;;;3.74;86.0459;94626.28;;;;
2020/03/07 03:56:57;;;;;;;10.95;8.700001;;;;;;;3.74;86.0459;94626.28;;;;
2020/03/07 03:57:58;;;;;;;10.95;8.700001;;;;;;;3.74;86.0459;94626.28;;;;
2020/03/07 03:58:58;;;;;;;10.95;8.700001;;;;;;;3.74;86.0459;94626.28;;;;
2020/03/07 03:59:59;;;;;;;9.25;7.849999;;;;;;;3.8;85.97559;94646.26;;;;
2020/03/07 04:00:59;;;;;;;9.25;7.849999;;;;;;;3.8;85.97559;94646.26;;;;
2020/03/07 04:02:00;;;;;;;9.25;7.849999;;;;;;;3.8;85.97559;94646.26;;;;
2020/03/07 04:03:00;;;;;;;9.25;7.849999;;;;;;;3.8;85.97559;94646.26;;;;
2020/03/07 04:04:00;;;;;;;9.25;7.849999;;;;;;;3.8;85.97559;94646.26;;;;
2020/03/07 04:05:01;;;;;;;9.25;7.849999;;;;;;;3.8;85.97559;94646.26;;;;
2020/03/07 04:06:02;;;;;;;9.25;7.849999;;;;;;;3.8;85.97559;94646.26;;;;
2020/03/07 04:07:03;;;;;;;9.25;7.849999;;;;;;;3.8;85.97559;94646.26;;;;
2020/03/07 04:08:03;;;;;;;9.25;7.849999;;;;;;;3.8;85.97559;94646.26;;;;
2020/03/07 04:09:04;;;;;;;9.25;7.849999;;;;;;;3.8;85.97559;94646.26;;;;
2020/03/07 04:10:11;;;;;;;9.25;7.849999;;;;;;;3.8;85.97559;94646.26;;;;
2020/03/07 04:11:11;;;;;;;11.45;8.35;;;;;;;3.8;85.84961;94675.22;;;;
2020/03/07 04:12:12;;;;;;;11.45;8.35;;;;;;;3.8;85.84961;94675.22;;;;
2020/03/07 04:13:12;;;;;;;11.45;8.35;;;;;;;3.8;85.84961;94675.22;;;;
2020/03/07 04:14:12;;;;;;;11.45;8.35;;;;;;;3.8;85.84961;94675.22;;;;
2020/03/07 04:15:13;;;;;;;11.45;8.35;;;;;;;3.8;85.84961;94675.22;;;;
2020/03/07 04:16:13;;;;;;;11.45;8.35;;;;;;;3.8;85.84961;94675.22;;;;
2020/03/07 04:17:14;;;;;;;11.45;8.35;;;;;;;3.8;85.84961;94675.22;;;;
2020/03/07 04:18:14;;;;;;;11.45;8.35;;;;;;;3.8;85.84961;94675.22;;;;
2020/03/07 04:19:15;;;;;;;11.45;8.35;;;;;;;3.8;85.84961;94675.22;;;;
2020/03/07 04:20:15;;;;;;;11.45;8.35;;;;;;;3.8;85.84961;94675.22;;;;
2020/03/07 04:21:16;;;;;;;11;8.4;;;;;;;3.85;85.91113;94682.08;;;;
2020/03/07 04:22:19;;;;;;;11;8.4;;;;;;;3.85;85.91113;94682.08;;;;
2020/03/07 04:23:21;;;;;;;11;8.4;;;;;;;3.85;85.91113;94682.08;;;;
2020/03/07 04:24:21;;;;;;;11;8.4;;;;;;;3.85;85.91113;94682.08;;;;
2020/03/07 04:25:22;;;;;;;11;8.4;;;;;;;3.85;85.91113;94682.08;;;;
2020/03/07 04:26:22;;;;;;;11;8.4;;;;;;;3.85;85.91113;94682.08;;;;
2020/03/07 04:27:23;;;;;;;11;8.4;;;;;;;3.85;85.91113;94682.08;;;;
2020/03/07 04:28:23;;;;;;;11;8.4;;;;;;;3.85;85.91113;94682.08;;;;
2020/03/07 04:29:24;;;;;;;11;8.4;;;;;;;3.85;85.91113;94682.08;;;;
2020/03/07 04:30:24;;;;;;;11;8.4;;;;;;;3.85;85.91113;94682.08;;;;
2020/03/07 04:31:25;;;;;;;11;8.4;;;;;;;3.85;85.91113;94682.08;;;;
2020/03/07 04:32:27;;;;;;;12.1;8.95;;;;;;;3.82;85.6543;94706.95;;;;
2020/03/07 04:33:27;;;;;;;12.1;8.95;;;;;;;3.82;85.6543;94706.95;;;;
2020/03/07 04:34:28;;;;;;;12.1;8.95;;;;;;;3.82;85.6543;94706.95;;;;
2020/03/07 04:35:28;;;;;;;12.1;8.95;;;;;;;3.82;85.6543;94706.95;;;;
2020/03/07 04:36:29;;;;;;;12.1;8.95;;;;;;;3.82;85.6543;94706.95;;;;
2020/03/07 04:37:30;;;;;;;12.1;8.95;;;;;;;3.82;85.6543;94706.95;;;;
2020/03/07 04:38:30;;;;;;;12.1;8.95;;;;;;;3.82;85.6543;94706.95;;;;
2020/03/07 04:39:31;;;;;;;12.1;8.95;;;;;;;3.82;85.6543;94706.95;;;;
2020/03/07 04:40:31;;;;;;;12.1;8.95;;;;;;;3.82;85.6543;94706.95;;;;
2020/03/07 04:41:32;;;;;;;12.1;8.95;;;;;;;3.82;85.6543;94706.95;;;;
2020/03/07 04:42:48;;;;;;;11.3;9.049999;;;;;;;3.84;85.77344;94718.34;;;;
2020/03/07 04:43:48;;;;;;;11.3;9.049999;;;;;;;3.84;85.77344;94718.34;;;;
2020/03/07 04:44:50;;;;;;;11.3;9.049999;;;;;;;3.84;85.77344;94718.34;;;;
2020/03/07 04:45:50;;;;;;;11.3;9.049999;;;;;;;3.84;85.77344;94718.34;;;;
2020/03/07 04:46:51;;;;;;;11.3;9.049999;;;;;;;3.84;85.77344;94718.34;;;;
2020/03/07 04:47:52;;;;;;;11.3;9.049999;;;;;;;3.84;85.77344;94718.34;;;;
2020/03/07 04:48:55;;;;;;;11.3;9.049999;;;;;;;3.84;85.77344;94718.34;;;;
2020/03/07 04:49:58;;;;;;;11.3;9.049999;;;;;;;3.84;85.77344;94718.34;;;;
2020/03/07 04:50:58;;;;;;;11.3;9.049999;;;;;;;3.84;85.77344;94718.34;;;;
2020/03/07 04:51:59;;;;;;;11.3;9.049999;;;;;;;3.84;85.77344;94718.34;;;;
2020/03/07 04:53:00;;;;;;;11.95;8.699999;;;;;;;3.75;85.58887;94718.67;;;;
2020/03/07 04:54:03;;;;;;;11.95;8.699999;;;;;;;3.75;85.58887;94718.67;;;;
2020/03/07 04:55:04;;;;;;;11.95;8.699999;;;;;;;3.75;85.58887;94718.67;;;;
2020/03/07 04:56:04;;;;;;;11.95;8.699999;;;;;;;3.75;85.58887;94718.67;;;;
2020/03/07 04:57:05;;;;;;;11.95;8.699999;;;;;;;3.75;85.58887;94718.67;;;;
2020/03/07 04:58:05;;;;;;;11.95;8.699999;;;;;;;3.75;85.58887;94718.67;;;;
2020/03/07 04:59:07;;;;;;;11.95;8.699999;;;;;;;3.75;85.58887;94718.67;;;;
2020/03/07 05:00:08;;;;;;;11.95;8.699999;;;;;;;3.75;85.58887;94718.67;;;;
2020/03/07 05:01:08;;;;;;;11.95;8.699999;;;;;;;3.75;85.58887;94718.67;;;;
2020/03/07 05:02:09;;;;;;;11.95;8.699999;;;;;;;3.75;85.58887;94718.67;;;;
2020/03/07 05:03:09;;;;;;;11.95;8.699999;;;;;;;3.75;85.58887;94718.67;;;;
2020/03/07 05:04:10;;;;;;;10.95;8.65;;;;;;;3.69;85.76563;94739.42;;;;
2020/03/07 05:05:10;;;;;;;10.95;8.65;;;;;;;3.69;85.76563;94739.42;;;;
2020/03/07 05:06:11;;;;;;;10.95;8.65;;;;;;;3.69;85.76563;94739.42;;;;
2020/03/07 05:07:11;;;;;;;10.95;8.65;;;;;;;3.69;85.76563;94739.42;;;;
2020/03/07 05:08:11;;;;;;;10.95;8.65;;;;;;;3.69;85.76563;94739.42;;;;
2020/03/07 05:09:12;;;;;;;10.95;8.65;;;;;;;3.69;85.76563;94739.42;;;;
2020/03/07 05:10:12;;;;;;;10.95;8.65;;;;;;;3.69;85.76563;94739.42;;;;
2020/03/07 05:11:13;;;;;;;10.95;8.65;;;;;;;3.69;85.76563;94739.42;;;;
2020/03/07 05:12:13;;;;;;;10.95;8.65;;;;;;;3.69;85.76563;94739.42;;;;
2020/03/07 05:13:14;;;;;;;10.95;8.65;;;;;;;3.69;85.76563;94739.42;;;;
2020/03/07 05:14:14;;;;;;;12.9;8.799999;;;;;;;3.57;85.85547;94746.01;;;;
2020/03/07 05:15:15;;;;;;;12.9;8.799999;;;;;;;3.57;85.85547;94746.01;;;;
2020/03/07 05:16:15;;;;;;;12.9;8.799999;;;;;;;3.57;85.85547;94746.01;;;;
2020/03/07 05:17:15;;;;;;;12.9;8.799999;;;;;;;3.57;85.85547;94746.01;;;;
2020/03/07 05:18:16;;;;;;;12.9;8.799999;;;;;;;3.57;85.85547;94746.01;;;;
2020/03/07 05:19:17;;;;;;;12.9;8.799999;;;;;;;3.57;85.85547;94746.01;;;;
2020/03/07 05:20:18;;;;;;;12.9;8.799999;;;;;;;3.57;85.85547;94746.01;;;;
2020/03/07 05:21:18;;;;;;;12.9;8.799999;;;;;;;3.57;85.85547;94746.01;;;;
2020/03/07 05:22:19;;;;;;;12.9;8.799999;;;;;;;3.57;85.85547;94746.01;;;;
2020/03/07 05:23:19;;;;;;;12.9;8.799999;;;;;;;3.57;85.85547;94746.01;;;;
2020/03/07 05:24:20;;;;;;;12.9;8.799999;;;;;;;3.57;85.85547;94746.01;;;;
2020/03/07 05:25:21;;;;;;;10.7;8.300001;;;;;;;3.53;85.71973;94757.28;;;;
2020/03/07 05:26:22;;;;;;;10.7;8.300001;;;;;;;3.53;85.71973;94757.28;;;;
2020/03/07 05:27:22;;;;;;;10.7;8.300001;;;;;;;3.53;85.71973;94757.28;;;;
2020/03/07 05:28:23;;;;;;;10.7;8.300001;;;;;;;3.53;85.71973;94757.28;;;;
2020/03/07 05:29:24;;;;;;;10.7;8.300001;;;;;;;3.53;85.71973;94757.28;;;;
2020/03/07 05:30:24;;;;;;;10.7;8.300001;;;;;;;3.53;85.71973;94757.28;;;;
2020/03/07 05:31:25;;;;;;;10.7;8.300001;;;;;;;3.53;85.71973;94757.28;;;;
2020/03/07 05:32:26;;;;;;;10.7;8.300001;;;;;;;3.53;85.71973;94757.28;;;;
2020/03/07 05:33:26;;;;;;;10.7;8.300001;;;;;;;3.53;85.71973;94757.28;;;;
2020/03/07 05:34:26;;;;;;;10.7;8.300001;;;;;;;3.53;85.71973;94757.28;;;;
2020/03/07 05:35:27;;;;;;;10.75;8.299999;;;;;;;3.41;85.65527;94780.28;;;;
2020/03/07 05:36:27;;;;;;;10.75;8.299999;;;;;;;3.41;85.65527;94780.28;;;;
2020/03/07 05:37:28;;;;;;;10.75;8.299999;;;;;;;3.41;85.65527;94780.28;;;;
2020/03/07 05:38:28;;;;;;;10.75;8.299999;;;;;;;3.41;85.65527;94780.28;;;;
2020/03/07 05:39:29;;;;;;;10.75;8.299999;;;;;;;3.41;85.65527;94780.28;;;;
2020/03/07 05:40:29;;;;;;;10.75;8.299999;;;;;;;3.41;85.65527;94780.28;;;;
2020/03/07 05:41:29;;;;;;;10.75;8.299999;;;;;;;3.41;85.65527;94780.28;;;;
2020/03/07 05:42:30;;;;;;;10.75;8.299999;;;;;;;3.41;85.65527;94780.28;;;;